Terminal Aerodrome Forecast
Issued by NWS Binghamton, NY

Home | Current Version | Previous Version | Text Only | Print | Product List | Glossary On
Versions: 1 2 3 4 5 6 7 8 9 10 11 12 13 14 15 16 17 18 19 20 21
000
FTUS41 KBGM 301600 AAC
TAFAVP
TAF AMD
KAVP 301609Z 3016/3112 20009KT P6SM BKN028
      TEMPO 3017/3021 BKN035
     FM302100 20004KT P6SM BKN035
     FM310600 20004KT P6SM OVC050
      TEMPO 3108/3112 OVC015=

USA.gov is the U.S. government's official web portal to all federal, state and local government web resources and services.